Time;durP1;ratioP1;P1;durP2;ratioP2;P2;SDS_P1;SDS_P2;PMS_P1;PMS_P2;Temp;Humidity;BMP_temperature;BMP_pressure;BME280_temperature;BME280_humidity;BME280_pressure;Samples;Min_cycle;Max_cycle;Signal;HPM_P1;HPM_P2
2022/08/11 00:01:20;;;;;;;;;12.00;12.00;;;;;25.92;29.89;101239.44;5055939;28;46978;-49
2022/08/11 00:03:49;;;;;;;;;13.00;12.00;;;;;25.91;30.03;101243.97;5064759;28;45310;-49
2022/08/11 00:06:23;;;;;;;;;10.00;9.75;;;;;25.88;30.13;101238.88;5069455;28;45644;-51
2022/08/11 00:08:50;;;;;;;;;13.00;11.50;;;;;25.88;29.79;101236.19;5061655;28;46732;-51
2022/08/11 00:11:16;;;;;;;;;15.00;12.00;;;;;25.86;29.56;101237.31;5064090;27;46918;-48
2022/08/11 00:13:44;;;;;;;;;12.00;10.25;;;;;25.84;29.71;101239.25;5064118;27;45400;-48
2022/08/11 00:16:16;;;;;;;;;12.75;11.75;;;;;25.83;29.73;101242.91;5070574;27;45390;-47
2022/08/11 00:18:53;;;;;;;;;9.50;9.25;;;;;25.80;29.92;101241.34;5073715;27;46291;-49
2022/08/11 00:21:20;;;;;;;;;13.50;10.75;;;;;25.80;29.62;101240.47;5072533;27;46090;-51
2022/08/11 00:24:06;;;;;;;;;12.25;10.25;;;;;25.77;29.63;101238.91;5062433;28;45444;-50
2022/08/11 00:26:32;;;;;;;;;9.25;9.25;;;;;25.74;29.92;101244.53;5064153;28;45606;-48
2022/08/11 00:29:10;;;;;;;;;9.00;8.00;;;;;25.72;29.62;101241.13;5064837;27;73590;-47
2022/08/11 00:31:36;;;;;;;;;11.50;10.75;;;;;25.71;29.97;101242.97;5072234;27;45823;-47
2022/08/11 00:34:02;;;;;;;;;11.00;9.00;;;;;25.66;29.77;101239.81;5063632;28;46466;-49
2022/08/11 00:36:50;;;;;;;;;12.25;11.25;;;;;25.67;29.91;101240.66;5064590;28;68255;-48
2022/08/11 00:39:19;;;;;;;;;13.75;10.75;;;;;25.64;30.09;101241.78;5070148;27;46546;-49
2022/08/11 00:42:02;;;;;;;;;12.50;11.25;;;;;25.63;30.31;101242.75;5063778;28;45510;-48
2022/08/11 00:44:49;;;;;;;;;10.25;10.25;;;;;25.61;30.03;101239.34;5070241;27;45482;-50
2022/08/11 00:47:30;;;;;;;;;11.75;11.00;;;;;25.57;30.26;101238.75;5067434;27;45288;-47
2022/08/11 00:50:13;;;;;;;;;13.00;10.75;;;;;25.57;30.33;101245.94;5070337;27;45557;-48
2022/08/11 00:52:58;;;;;;;;;11.50;10.00;;;;;25.54;30.22;101248.88;5071322;27;45852;-49
2022/08/11 00:55:54;;;;;;;;;11.75;11.25;;;;;25.52;30.56;101254.34;5065001;28;45473;-47
2022/08/11 00:58:48;;;;;;;;;14.25;12.00;;;;;25.48;30.33;101247.56;5074331;27;45325;-47
2022/08/11 01:01:16;;;;;;;;;11.75;10.25;;;;;25.46;30.38;101248.63;5067408;28;45658;-51
2022/08/11 01:03:59;;;;;;;;;16.00;10.50;;;;;25.43;30.30;101247.06;5068827;27;45675;-46
2022/08/11 01:06:43;;;;;;;;;12.00;12.00;;;;;25.41;30.69;101245.47;5075236;28;45446;-48
2022/08/11 01:09:28;;;;;;;;;9.25;9.25;;;;;25.37;30.69;101248.44;5069104;28;46884;-49
2022/08/11 01:12:02;;;;;;;;;10.75;10.00;;;;;25.33;30.92;101240.75;5066582;28;46233;-53
2022/08/11 01:14:51;;;;;;;;;14.50;12.50;;;;;25.30;30.81;101246.34;5071602;28;46995;-50
2022/08/11 01:17:44;;;;;;;;;11.25;11.00;;;;;25.28;30.72;101246.47;5059192;28;45457;-51
2022/08/11 01:20:16;;;;;;;;;10.50;9.00;;;;;25.26;30.85;101240.41;5081098;27;45527;-49
2022/08/11 01:23:18;;;;;;;;;10.75;10.75;;;;;25.24;31.10;101244.16;5072099;27;46473;-47
2022/08/11 01:26:01;;;;;;;;;14.50;10.00;;;;;25.19;31.06;101239.16;5066964;28;45819;-49
2022/08/11 01:28:48;;;;;;;;;11.50;10.00;;;;;25.17;31.04;101233.09;5061797;27;45468;-50
2022/08/11 01:31:35;;;;;;;;;16.75;14.75;;;;;25.14;31.22;101230.66;5067213;27;45234;-52
2022/08/11 01:34:26;;;;;;;;;11.50;11.00;;;;;25.11;31.23;101231.75;5070423;28;45544;-52
2022/08/11 01:37:28;;;;;;;;;11.50;11.50;;;;;25.07;30.96;101237.47;5067667;27;45233;-50
2022/08/11 01:40:02;;;;;;;;;14.00;11.50;;;;;25.05;31.13;101237.59;5073954;28;45504;-50
2022/08/11 01:45:51;;;;;;;;;12.00;12.00;;;;;24.99;31.22;101236.25;5065032;28;45268;-47
2022/08/11 01:48:47;;;;;;;;;13.25;12.00;;;;;24.97;31.03;101232.88;5065121;28;45406;-49
2022/08/11 01:52:01;;;;;;;;;9.75;9.75;;;;;24.96;31.12;101233.81;5062536;28;45606;-47
2022/08/11 01:54:36;;;;;;;;;9.50;8.00;;;;;24.94;31.04;101235.78;5076214;27;45475;-48
2022/08/11 01:57:20;;;;;;;;;12.75;11.75;;;;;24.92;31.16;101234.22;5076973;28;47317;-51
2022/08/11 01:59:53;;;;;;;;;11.00;9.25;;;;;24.89;31.49;101247.84;5077951;27;45390;-49
2022/08/11 02:02:46;;;;;;;;;9.25;8.00;;;;;24.85;31.33;101249.91;5077735;27;45171;-47
2022/08/11 02:05:59;;;;;;;;;14.25;12.25;;;;;24.83;31.56;101246.50;5072056;27;45957;-49
2022/08/11 02:08:46;;;;;;;;;10.50;9.00;;;;;24.81;31.57;101237.75;5069973;27;47137;-47
2022/08/11 02:11:30;;;;;;;;;13.25;11.75;;;;;24.77;31.81;101234.47;5077460;28;45577;-49
2022/08/11 02:14:22;;;;;;;;;12.50;11.00;;;;;24.72;31.73;101239.31;5077260;27;45463;-46
2022/08/11 02:17:10;;;;;;;;;13.50;13.25;;;;;24.69;31.93;101239.56;5074019;27;45419;-48
2022/08/11 02:26:07;;;;;;;;;10.50;9.25;;;;;24.56;31.80;101234.31;5078546;28;45307;-48
2022/08/11 02:28:51;;;;;;;;;12.75;12.75;;;;;24.51;32.16;101240.97;5074210;27;45532;-46
2022/08/11 02:34:27;;;;;;;;;11.00;9.00;;;;;24.44;31.98;101241.44;5080171;27;45356;-49
2022/08/11 02:37:31;;;;;;;;;11.25;11.25;;;;;24.41;32.20;101239.00;5075446;28;45246;-49
2022/08/11 02:39:57;;;;;;;;;11.75;11.75;;;;;24.38;32.46;101238.38;5050429;27;45491;-48
2022/08/11 02:42:25;;;;;;;;;10.33;10.00;;;;;24.34;32.48;101235.09;5075756;27;45470;-50
2022/08/11 02:45:16;;;;;;;;;11.25;11.25;;;;;24.30;32.33;101233.63;5073595;27;45358;-47
2022/08/11 02:51:12;;;;;;;;;9.00;8.25;;;;;24.24;32.30;101239.44;5080584;28;45672;-50
2022/08/11 02:53:39;;;;;;;;;12.25;10.75;;;;;24.20;32.41;101230.81;5067654;28;45456;-49
2022/08/11 02:56:13;;;;;;;;;10.00;9.00;;;;;24.17;32.82;101231.06;5071082;27;45351;-46
2022/08/11 03:02:15;;;;;;;;;13.25;11.75;;;;;24.12;32.60;101237.75;5076271;27;45502;-45
2022/08/11 03:04:54;;;;;;;;;12.50;11.00;;;;;24.10;32.59;101229.84;5066614;28;45742;-45
2022/08/11 03:07:40;;;;;;;;;12.25;11.50;;;;;24.07;32.58;101235.41;5078430;27;45829;-47
2022/08/11 03:10:22;;;;;;;;;11.00;11.00;;;;;23.99;32.91;101229.78;5073400;28;45621;-52
2022/08/11 03:19:13;;;;;;;;;11.50;9.50;;;;;23.84;33.41;101238.00;5071392;28;45481;-52
2022/08/11 03:21:47;;;;;;;;;11.25;11.00;;;;;23.82;33.31;101237.25;5081541;27;45301;-52
2022/08/11 03:24:32;;;;;;;;;12.00;12.00;;;;;23.79;33.27;101233.94;5093437;27;45456;-51
2022/08/11 03:27:09;;;;;;;;;11.75;11.00;;;;;23.75;33.77;101229.78;5078621;27;48510;-52
2022/08/11 03:30:17;;;;;;;;;13.75;11.00;;;;;23.69;33.54;101231.06;5072170;27;45491;-50
2022/08/11 03:36:13;;;;;;;;;17.00;15.75;;;;;23.62;33.77;101229.84;5072341;27;45239;-46
2022/08/11 03:38:47;;;;;;;;;12.25;11.00;;;;;23.59;33.61;101230.94;5076363;28;46358;-50
2022/08/11 03:41:55;;;;;;;;;13.00;13.00;;;;;23.57;33.73;101230.19;5067846;28;45802;-46
2022/08/11 03:44:17;;;;;;;;;11.25;11.25;;;;;23.56;33.65;101232.97;5069792;28;45557;-46
2022/08/11 03:47:26;;;;;;;;;18.75;18.25;;;;;23.52;33.82;101228.84;5070838;27;45604;-46
2022/08/11 03:49:57;;;;;;;;;13.25;13.25;;;;;23.51;33.83;101235.97;5075332;27;46309;-47
2022/08/11 03:52:35;;;;;;;;;15.75;14.25;;;;;23.48;33.90;101233.56;5067389;27;45449;-47
2022/08/11 03:55:30;;;;;;;;;15.00;12.75;;;;;23.47;33.58;101230.00;5073242;27;45432;-50
2022/08/11 03:58:14;;;;;;;;;11.50;11.25;;;;;23.45;33.35;101242.63;5070695;28;45512;-49
2022/08/11 04:01:04;;;;;;;;;15.25;12.00;;;;;23.44;33.73;101238.25;5069003;27;45411;-54
2022/08/11 04:03:52;;;;;;;;;10.50;7.75;;;;;23.40;33.90;101236.75;5071358;27;45539;-51
2022/08/11 04:06:42;;;;;;;;;13.25;12.50;;;;;23.35;34.14;101230.91;5067182;27;45554;-48
2022/08/11 04:09:20;;;;;;;;;10.50;10.50;;;;;23.31;34.26;101230.28;5065785;27;45504;-51
2022/08/11 04:12:02;;;;;;;;;11.25;11.25;;;;;23.28;34.63;101232.31;5077195;27;45510;-49
2022/08/11 04:17:33;;;;;;;;;9.00;9.00;;;;;23.21;34.17;101237.25;5064842;27;45461;-47
2022/08/11 04:20:32;;;;;;;;;14.00;12.75;;;;;23.17;34.05;101230.44;5061561;28;45354;-47
2022/08/11 04:23:10;;;;;;;;;18.50;16.75;;;;;23.18;34.22;101241.94;5067068;28;46251;-46
2022/08/11 04:25:58;;;;;;;;;16.75;12.75;;;;;23.14;34.12;101238.66;5064842;27;45478;-49
2022/08/11 04:28:52;;;;;;;;;11.00;11.00;;;;;23.12;34.74;101243.25;5064978;28;45663;-47
2022/08/11 04:31:36;;;;;;;;;12.75;11.75;;;;;23.07;34.94;101235.59;5075386;28;45540;-46
2022/08/11 04:34:20;;;;;;;;;14.00;14.00;;;;;;;;5075833;28;45714;-47
2022/08/11 04:40:09;;;;;;;;;9.50;7.50;;;;;22.97;34.73;101234.50;5072328;27;45482;-49
2022/08/11 04:43:19;;;;;;;;;13.00;12.00;;;;;22.94;34.94;101232.91;5066367;28;45426;-45
2022/08/11 04:46:31;;;;;;;;;12.50;12.50;;;;;22.93;34.93;101236.53;5060492;28;45418;-46
2022/08/11 05:01:40;;;;;;;;;12.75;11.75;;;;;22.88;34.91;101235.16;5066906;27;45520;-46
2022/08/11 05:07:24;;;;;;;;;12.50;11.25;;;;;22.92;35.25;101237.50;5074484;27;45363;-48
2022/08/11 05:10:05;;;;;;;;;14.25;12.50;;;;;22.94;34.63;101240.06;5066135;27;46330;-47
2022/08/11 05:12:47;;;;;;;;;14.25;9.75;;;;;22.93;34.91;101236.53;5072792;28;45259;-50
2022/08/11 05:35:31;;;;;;;;;8.75;8.75;;;;;23.07;35.26;101253.41;5067831;27;46217;-48
2022/08/11 05:57:28;;;;;;;;;12.25;10.50;;;;;23.23;36.12;101271.84;5067210;27;45835;-48
2022/08/11 06:00:04;;;;;;;;;9.75;9.75;;;;;23.23;35.91;101272.72;5071739;28;45714;-51
2022/08/11 06:02:30;;;;;;;;;13.50;12.50;;;;;23.27;35.68;101270.69;5067231;28;45707;-46
2022/08/11 06:05:00;;;;;;;;;12.50;10.50;;;;;23.31;34.29;101274.84;5048724;28;45632;-46
2022/08/11 06:07:34;;;;;;;;;12.00;11.00;;;;;23.33;35.43;101272.06;5064328;28;46251;-46
2022/08/11 06:09:59;;;;;;;;;11.00;11.00;;;;;23.35;34.60;101270.13;5074239;28;60351;-46
2022/08/11 06:12:36;;;;;;;;;9.75;9.00;;;;;23.34;35.83;101274.63;5070715;28;71680;-47
2022/08/11 06:15:04;;;;;;;;;8.50;8.00;;;;;23.39;34.77;101276.94;5064237;28;46117;-49
2022/08/11 06:17:31;;;;;;;;;10.25;10.00;;;;;23.41;34.40;101277.66;5060867;27;45494;-49
2022/08/11 06:20:03;;;;;;;;;14.75;11.25;;;;;23.43;34.46;101284.63;5065126;28;45283;-46
2022/08/11 06:22:29;;;;;;;;;12.00;11.25;;;;;23.42;34.58;101280.25;5061510;28;45517;-46
2022/08/11 06:25:00;;;;;;;;;11.25;9.50;;;;;23.39;35.59;101277.81;5061243;28;70149;-51
2022/08/11 06:27:29;;;;;;;;;14.00;13.00;;;;;23.40;35.10;101278.66;5067667;27;45500;-46
2022/08/11 06:29:55;;;;;;;;;14.50;10.75;;;;;23.43;34.91;101281.97;5072277;28;45687;-47
2022/08/11 06:32:26;;;;;;;;;14.50;11.75;;;;;23.46;34.23;101287.09;5069557;27;45429;-45
2022/08/11 06:35:18;;;;;;;;;13.25;11.00;;;;;23.47;34.37;101288.78;5073293;28;46391;-51
2022/08/11 06:38:06;;;;;;;;;11.75;10.75;;;;;23.50;33.90;101285.03;5065617;28;45583;-46
2022/08/11 06:40:36;;;;;;;;;13.00;11.50;;;;;23.54;34.21;101283.84;5079563;27;45389;-51
2022/08/11 06:43:20;;;;;;;;;10.50;10.25;;;;;23.55;34.17;101284.69;5078689;28;45485;-51
2022/08/11 06:46:05;;;;;;;;;15.75;11.50;;;;;23.59;33.85;101289.72;5065194;27;46336;-47
2022/08/11 06:48:31;;;;;;;;;29.25;21.25;;;;;23.62;33.90;101291.28;5049882;28;45342;-44
2022/08/11 06:51:12;;;;;;;;;17.25;13.00;;;;;23.65;33.67;101291.91;5060544;28;45276;-44
2022/08/11 06:53:58;;;;;;;;;9.50;9.50;;;;;23.68;33.94;101291.69;5068439;28;45475;-46
2022/08/11 07:02:15;;;;;;;;;17.25;14.25;;;;;23.86;33.74;101286.84;5078489;27;45319;-48
2022/08/11 07:04:48;;;;;;;;;13.50;10.50;;;;;23.92;32.73;101288.22;5074534;27;45362;-46
2022/08/11 07:15:50;;;;;;;;;9.75;9.75;;;;;24.16;31.95;101293.53;5077825;28;45505;-52
2022/08/11 07:29:50;;;;;;;;;8.75;8.50;;;;;24.47;31.88;101285.84;5079545;27;45590;-49
2022/08/11 07:32:22;;;;;;;;;10.75;9.00;;;;;24.52;31.28;101282.81;5079833;28;45751;-52
2022/08/11 07:34:52;;;;;;;;;8.25;8.25;;;;;24.57;31.50;101289.53;5069747;28;45297;-50
2022/08/11 07:37:19;;;;;;;;;7.75;7.75;;;;;24.64;31.46;101290.75;5076408;27;45563;-47
2022/08/11 07:39:45;;;;;;;;;11.00;9.00;;;;;24.70;31.15;101288.56;5097306;27;45583;-51
2022/08/11 07:42:14;;;;;;;;;10.00;10.00;;;;;24.75;31.09;101284.56;5094924;27;46447;-52
2022/08/11 07:52:56;;;;;;;;;10.75;7.75;;;;;24.96;30.84;101275.81;5076238;27;45274;-47
2022/08/11 07:55:26;;;;;;;;;7.50;7.00;;;;;25.02;30.76;101281.56;5073166;27;45349;-47
2022/08/11 08:19:59;;;;;;;;;10.50;8.25;;;;;25.58;30.21;101272.59;5080157;27;45434;-46
2022/08/11 08:22:25;;;;;;;;;8.00;8.00;;;;;25.65;30.24;101270.25;5096299;27;47079;-47
2022/08/11 08:24:51;;;;;;;;;10.75;9.25;;;;;25.71;30.11;101274.25;5078233;27;64411;-49
2022/08/11 08:27:16;;;;;;;;;10.25;8.00;;;;;25.77;29.88;101271.09;5095149;27;45488;-48
2022/08/11 08:32:27;;;;;;;;;8.75;6.50;;;;;25.89;30.25;101278.13;5079137;27;45795;-49
2022/08/11 08:34:57;;;;;;;;;8.50;8.00;;;;;25.95;30.06;101268.72;5075535;28;73472;-49
2022/08/11 08:37:24;;;;;;;;;8.50;7.75;;;;;26.02;29.98;101269.06;5079614;28;45512;-51
2022/08/11 08:39:50;;;;;;;;;7.50;6.00;;;;;26.06;29.85;101271.34;5077602;27;45597;-50
2022/08/11 08:42:23;;;;;;;;;10.25;9.00;;;;;26.12;29.69;101273.53;5095559;27;45371;-48
2022/08/11 08:44:56;;;;;;;;;9.75;8.00;;;;;26.18;29.75;101268.63;5065452;27;45489;-51
2022/08/11 08:47:23;;;;;;;;;9.00;6.50;;;;;26.24;29.77;101271.66;5066817;28;45390;-49
2022/08/11 08:49:50;;;;;;;;;8.50;7.00;;;;;26.29;29.59;101265.88;5061610;27;45347;-47
2022/08/11 08:52:19;;;;;;;;;9.25;8.50;;;;;26.38;29.52;101269.59;5072335;27;45349;-48
2022/08/11 08:54:52;;;;;;;;;9.75;8.00;;;;;26.46;29.56;101270.66;5079945;27;45796;-49
2022/08/11 08:57:19;;;;;;;;;6.50;6.50;;;;;26.54;29.29;101272.66;5049125;28;45260;-50
2022/08/11 08:59:47;;;;;;;;;9.75;6.75;;;;;26.63;29.35;101281.78;5080042;27;45287;-50
2022/08/11 09:02:13;;;;;;;;;9.75;7.00;;;;;26.70;28.98;101274.91;5076584;28;45351;-50
2022/08/11 09:04:39;;;;;;;;;7.25;6.00;;;;;26.78;29.08;101277.78;5067478;28;45525;-47
2022/08/11 09:07:16;;;;;;;;;5.25;5.25;;;;;26.85;29.03;101278.09;5077183;27;45366;-49
2022/08/11 09:09:43;;;;;;;;;7.25;7.00;;;;;26.93;28.84;101277.41;5057879;28;45300;-49
2022/08/11 09:12:10;;;;;;;;;8.00;8.00;;;;;27.02;28.87;101282.84;5061759;28;46363;-48
2022/08/11 09:17:22;;;;;;;;;7.25;7.00;;;;;27.30;28.88;101271.50;5092622;27;45377;-52
2022/08/11 09:19:57;;;;;;;;;8.75;7.00;;;;;27.50;28.48;101270.56;5079505;27;45468;-50
2022/08/11 09:27:52;;;;;;;;;6.50;5.75;;;;;28.98;27.37;101262.19;5080179;27;45317;-49
2022/08/11 09:30:19;;;;;;;;;6.50;6.25;;;;;29.70;26.22;101260.50;5073911;27;45307;-51
2022/08/11 09:32:45;;;;;;;;;5.75;5.50;;;;;30.47;24.62;101265.38;5051450;28;47059;-45
2022/08/11 09:35:11;;;;;;;;;5.00;5.00;;;;;31.28;25.02;101258.69;5073956;28;45481;-51
2022/08/11 09:40:30;;;;;;;;;4.50;4.00;;;;;33.15;23.28;101251.66;5068670;28;45361;-49
2022/08/11 09:45:50;;;;;;;;;5.75;5.00;;;;;35.17;20.79;101248.31;5067396;28;45236;-51
2022/08/11 09:48:17;;;;;;;;;6.00;5.00;;;;;35.98;19.77;101246.41;5079012;28;45435;-49
2022/08/11 09:50:45;;;;;;;;;6.75;5.00;;;;;36.70;19.57;101242.56;5064927;28;45271;-51
2022/08/11 09:53:11;;;;;;;;;5.50;4.25;;;;;37.41;19.40;101241.34;5077556;28;46153;-50
2022/08/11 09:55:37;;;;;;;;;4.75;4.50;;;;;38.23;18.89;101233.03;5078927;27;45509;-50
2022/08/11 09:58:15;;;;;;;;;5.00;3.75;;;;;38.89;17.72;101242.97;5076760;28;66047;-51
2022/08/11 10:00:42;;;;;;;;;3.25;3.25;;;;;39.52;16.63;101235.91;5078327;27;45322;-48
2022/08/11 10:03:12;;;;;;;;;6.00;4.75;;;;;40.19;15.76;101241.69;5079198;27;45632;-51
2022/08/11 10:08:27;;;;;;;;;5.50;5.50;;;;;41.50;14.38;101244.13;5078362;28;45409;-50
2022/08/11 10:10:53;;;;;;;;;6.00;6.00;;;;;42.25;15.20;101234.41;5076428;28;45226;-49
2022/08/11 10:13:20;;;;;;;;;7.00;6.00;;;;;42.96;13.51;101237.03;5077419;28;57256;-50
2022/08/11 10:15:46;;;;;;;;;3.75;3.00;;;;;43.49;13.57;101229.50;5082390;27;45207;-50
2022/08/11 10:18:41;;;;;;;;;5.75;5.25;;;;;44.02;11.96;101230.91;5096285;27;69437;-49
2022/08/11 10:21:33;;;;;;;;;6.00;5.50;;;;;44.47;12.10;101231.84;5073055;28;45531;-51
2022/08/11 10:26:54;;;;;;;;;10.00;8.50;;;;;45.13;12.55;101240.09;5082465;27;45299;-49
2022/08/11 10:35:11;;;;;;;;;6.00;5.50;;;;;45.96;11.72;101211.25;5094188;27;45467;-53
2022/08/11 10:37:37;;;;;;;;;4.00;3.50;;;;;46.15;11.80;101211.66;5097122;27;45521;-53
2022/08/11 10:40:05;;;;;;;;;6.00;5.00;;;;;46.28;10.91;101211.16;5098086;27;45321;-53
2022/08/11 10:47:59;;;;;;;;;5.25;5.00;;;;;46.49;10.49;101184.41;5073058;27;45848;-53
2022/08/11 10:58:48;;;;;;;;;7.25;5.75;;;;;46.44;9.65;101192.66;5081031;27;45300;-52
2022/08/11 11:01:33;;;;;;;;;8.00;6.00;;;;;46.46;9.47;101196.00;5080665;28;45426;-50
2022/08/11 11:04:01;;;;;;;;;5.50;5.50;;;;;46.45;9.53;101185.19;5083483;27;45308;-49
2022/08/11 11:06:43;;;;;;;;;5.00;5.00;;;;;46.01;9.31;101186.38;5073725;28;45538;-51
2022/08/11 11:09:31;;;;;;;;;8.00;6.00;;;;;45.14;10.08;101182.91;5080560;27;45885;-48
2022/08/11 11:18:00;;;;;;;;;6.00;6.00;;;;;42.10;11.67;101186.25;5079800;27;45279;-49
2022/08/11 11:20:42;;;;;;;;;4.75;4.25;;;;;41.20;12.00;101173.56;5078827;28;45366;-51
2022/08/11 11:23:15;;;;;;;;;7.25;5.75;;;;;40.68;12.14;101167.75;5080174;27;45378;-49
2022/08/11 11:26:19;;;;;;;;;8.50;6.25;;;;;40.10;12.95;101177.25;5094482;27;45242;-51
2022/08/11 11:29:15;;;;;;;;;8.25;8.00;;;;;39.40;12.82;101164.53;5080084;27;47074;-51
2022/08/11 11:31:50;;;;;;;;;10.75;7.75;;;;;38.87;13.42;101163.81;5077792;28;45299;-52
2022/08/11 11:34:45;;;;;;;;;8.00;7.25;;;;;38.44;13.80;101167.13;5081723;27;45665;-52
2022/08/11 11:37:12;;;;;;;;;6.75;6.75;;;;;38.03;13.96;101154.59;5062967;27;46796;-48
2022/08/11 11:39:37;;;;;;;;;8.00;7.25;;;;;37.88;13.94;101152.13;5071897;27;46596;-51
2022/08/11 11:42:05;;;;;;;;;9.50;8.00;;;;;37.98;13.97;101147.06;5095836;27;61259;-51
2022/08/11 11:44:31;;;;;;;;;6.50;6.50;;;;;38.17;13.72;101152.72;5079908;27;45315;-52
2022/08/11 11:46:57;;;;;;;;;6.00;6.00;;;;;38.42;14.27;101155.56;5059873;28;45425;-50
2022/08/11 11:49:26;;;;;;;;;6.25;6.25;;;;;38.78;14.03;101156.06;5074865;27;46081;-54
2022/08/11 11:51:53;;;;;;;;;6.00;6.00;;;;;39.09;13.67;101149.81;5079563;28;45665;-54
2022/08/11 11:54:25;;;;;;;;;7.00;7.00;;;;;39.21;13.44;101142.59;5080611;27;45271;-53
2022/08/11 11:56:52;;;;;;;;;6.75;6.00;;;;;39.18;13.87;101145.75;5079706;27;45453;-51
2022/08/11 12:02:10;;;;;;;;;6.75;6.75;;;;;38.73;13.81;101141.16;5093595;27;45812;-50
2022/08/11 12:04:37;;;;;;;;;6.25;6.25;;;;;38.51;14.32;101142.50;5079754;27;45466;-51
2022/08/11 12:09:47;;;;;;;;;8.00;7.50;;;;;38.14;14.09;101129.41;5094290;27;45653;-50
2022/08/11 12:14:57;;;;;;;;;8.00;6.00;;;;;37.57;13.97;101130.88;5074271;28;45246;-51
2022/08/11 12:17:22;;;;;;;;;9.75;8.00;;;;;37.29;14.62;101126.47;5077262;27;70491;-50
2022/08/11 12:19:48;;;;;;;;;7.00;5.50;;;;;37.00;15.00;101117.59;5079442;28;45393;-51
2022/08/11 12:27:43;;;;;;;;;8.75;7.00;;;;;36.55;15.25;101108.19;5072876;27;45407;-50
2022/08/11 12:30:09;;;;;;;;;7.00;6.50;;;;;36.56;14.95;101115.34;5090315;27;66599;-51
2022/08/11 12:32:36;;;;;;;;;7.25;7.25;;;;;36.57;14.95;101115.16;5079075;27;45327;-48
2022/08/11 12:35:03;;;;;;;;;6.75;6.25;;;;;36.64;15.58;101105.09;5077115;27;45338;-47
2022/08/11 12:37:36;;;;;;;;;8.25;7.75;;;;;36.69;15.56;101093.63;5053643;28;45332;-51
2022/08/11 12:45:37;;;;;;;;;6.00;6.00;;;;;36.82;14.70;101093.63;5079668;27;45360;-48
2022/08/11 12:53:44;;;;;;;;;8.25;8.00;;;;;36.61;15.46;101086.41;5080365;27;45853;-49
2022/08/11 13:07:09;;;;;;;;;5.75;5.75;;;;;35.70;16.14;101072.94;5077756;28;45303;-49
2022/08/11 13:09:34;;;;;;;;;7.50;7.50;;;;;35.55;15.88;101078.47;5079310;28;45456;-48
2022/08/11 13:14:44;;;;;;;;;5.75;5.75;;;;;35.34;16.24;101071.19;5079762;27;45349;-47
2022/08/11 13:17:21;;;;;;;;;6.00;6.00;;;;;35.32;16.44;101076.00;5076818;27;50998;-46
2022/08/11 13:19:48;;;;;;;;;10.75;8.00;;;;;35.24;16.62;101073.41;5080258;27;45397;-50
2022/08/11 13:22:19;;;;;;;;;10.50;8.00;;;;;35.20;16.22;101075.66;5094146;27;46271;-46
2022/08/11 13:24:45;;;;;;;;;9.50;8.00;;;;;35.18;16.32;101066.84;5061733;28;45680;-49
2022/08/11 13:27:13;;;;;;;;;7.25;7.25;;;;;35.11;16.60;101064.06;5078425;27;45177;-49
2022/08/11 13:29:40;;;;;;;;;8.50;7.75;;;;;35.01;16.50;101057.25;5078353;28;45447;-46
2022/08/11 13:32:06;;;;;;;;;9.50;9.00;;;;;34.90;16.78;101064.94;5078250;28;47179;-47
2022/08/11 13:34:34;;;;;;;;;9.25;8.00;;;;;34.76;16.24;101063.94;5076384;28;45449;-46
2022/08/11 13:37:01;;;;;;;;;7.00;7.00;;;;;34.57;16.46;101073.53;5077350;27;45355;-49
2022/08/11 13:39:29;;;;;;;;;8.00;8.00;;;;;34.39;16.40;101057.66;5073060;27;45307;-46
2022/08/11 13:41:56;;;;;;;;;8.75;8.00;;;;;34.24;16.92;101065.81;5077602;28;46815;-48
2022/08/11 13:44:23;;;;;;;;;7.50;6.50;;;;;34.09;16.79;101056.81;5064824;27;45328;-50
2022/08/11 13:46:50;;;;;;;;;9.00;9.00;;;;;33.97;17.25;101056.44;5080841;27;45307;-50
2022/08/11 13:49:16;;;;;;;;;11.00;9.00;;;;;33.86;17.03;101060.47;5069173;28;45471;-47
2022/08/11 13:51:42;;;;;;;;;11.50;10.25;;;;;33.72;17.72;101053.16;5077696;28;45333;-48
2022/08/11 13:54:18;;;;;;;;;10.25;7.50;;;;;33.62;17.71;101047.13;5076097;28;45847;-47
2022/08/11 13:56:46;;;;;;;;;9.00;8.75;;;;;33.51;17.75;101053.03;5078981;27;45519;-46
2022/08/11 13:59:14;;;;;;;;;9.00;7.00;;;;;33.39;18.30;101037.16;5095024;27;45362;-51
2022/08/11 14:01:55;;;;;;;;;10.00;9.00;;;;;33.31;17.95;101048.13;5079419;27;45261;-48
2022/08/11 14:04:33;;;;;;;;;5.75;5.00;;;;;33.23;18.06;101045.47;5081089;27;45538;-48
2022/08/11 14:07:02;;;;;;;;;10.50;9.00;;;;;33.15;18.11;101050.94;5077389;27;45337;-47
2022/08/11 14:09:32;;;;;;;;;11.00;10.75;;;;;33.07;18.19;101046.41;5077487;27;45374;-47
2022/08/11 14:14:48;;;;;;;;;9.00;9.00;;;;;32.88;18.19;101043.19;5084010;27;45736;-48
2022/08/11 14:17:16;;;;;;;;;7.75;7.75;;;;;32.79;18.08;101036.13;5078915;27;45425;-49
2022/08/11 14:19:43;;;;;;;;;8.50;8.25;;;;;32.75;18.54;101042.94;5078114;28;45335;-52
2022/08/11 14:22:11;;;;;;;;;7.75;7.75;;;;;32.67;19.05;101043.84;5077276;28;45356;-49
2022/08/11 14:24:39;;;;;;;;;8.50;8.25;;;;;32.59;18.71;101027.63;5076210;28;45747;-49
2022/08/11 14:27:06;;;;;;;;;10.00;10.00;;;;;32.54;18.98;101032.69;5075805;28;45494;-53
2022/08/11 14:29:37;;;;;;;;;8.00;7.00;;;;;32.48;18.60;101025.28;5076659;28;45215;-52
2022/08/11 14:32:05;;;;;;;;;7.75;7.75;;;;;32.44;18.44;101016.69;5073376;27;45497;-48
2022/08/11 14:34:33;;;;;;;;;8.50;6.75;;;;;32.38;18.87;101025.50;5070460;28;45781;-50
2022/08/11 14:37:01;;;;;;;;;11.50;9.50;;;;;32.32;18.91;101016.22;5078605;27;45369;-48
2022/08/11 14:39:28;;;;;;;;;9.25;8.00;;;;;32.27;18.65;101026.75;5078655;27;45295;-50
2022/08/11 14:47:03;;;;;;;;;7.00;6.75;;;;;32.15;18.69;101006.50;5078221;27;45650;-47
2022/08/11 14:47:53;;;;;;;;;8.00;8.00;;;;;32.10;19.42;101007.03;5071995;27;45239;-46
2022/08/11 14:50:22;;;;;;;;;9.00;7.50;;;;;32.08;19.13;101002.81;5068297;28;45385;-48
2022/08/11 14:52:51;;;;;;;;;10.75;9.25;;;;;32.04;18.56;101005.03;5056938;28;46989;-48
2022/08/11 14:58:02;;;;;;;;;6.75;6.00;;;;;31.98;18.34;101000.31;5065488;27;45390;-46
2022/08/11 15:00:28;;;;;;;;;6.50;6.50;;;;;31.94;18.53;100996.22;5062162;28;45516;-50
2022/08/11 15:03:09;;;;;;;;;10.50;10.00;;;;;31.93;18.77;100991.84;5077677;27;46459;-49
2022/08/11 15:05:39;;;;;;;;;10.50;8.50;;;;;31.90;18.91;100995.75;5079143;28;45719;-48
2022/08/11 15:08:05;;;;;;;;;5.75;5.75;;;;;31.91;18.61;100991.19;5080852;27;45294;-51
2022/08/11 15:10:31;;;;;;;;;11.00;8.75;;;;;31.90;19.10;100989.50;5079157;27;45462;-48
2022/08/11 15:12:57;;;;;;;;;6.75;6.75;;;;;31.92;19.27;100974.75;5080691;27;45403;-47
2022/08/11 15:18:12;;;;;;;;;9.50;9.00;;;;;32.04;19.40;100972.53;5074068;27;45269;-48
2022/08/11 15:26:14;;;;;;;;;8.50;8.00;;;;;32.29;18.56;100958.88;5079783;28;45187;-50
2022/08/11 15:37:25;;;;;;;;;8.25;8.00;;;;;32.49;18.56;100959.22;5091094;27;45786;-50
2022/08/11 15:45:48;;;;;;;;;9.50;8.50;;;;;32.66;17.93;100962.72;5079332;28;45788;-51
2022/08/11 15:48:32;;;;;;;;;10.75;9.00;;;;;32.67;18.60;100959.81;5080598;27;45229;-50
2022/08/11 15:51:10;;;;;;;;;9.75;8.00;;;;;32.69;18.16;100965.91;5092550;27;45359;-48
2022/08/11 15:53:41;;;;;;;;;9.00;9.00;;;;;32.69;18.61;100960.47;5063493;27;45299;-51
2022/08/11 15:56:08;;;;;;;;;11.00;8.50;;;;;32.69;17.92;100965.06;5077421;27;45464;-52
2022/08/11 16:04:13;;;;;;;;;10.75;8.75;;;;;32.70;18.34;100936.91;5079608;27;45450;-51
2022/08/11 16:06:49;;;;;;;;;9.00;9.00;;;;;32.73;17.97;100948.25;5069089;27;46128;-50
2022/08/11 16:09:18;;;;;;;;;8.50;8.50;;;;;32.73;18.55;100948.25;5080257;27;45704;-48
2022/08/11 16:11:45;;;;;;;;;12.75;10.00;;;;;32.73;18.69;100948.25;5076549;27;45353;-47
2022/08/11 16:16:57;;;;;;;;;10.00;8.50;;;;;32.79;18.64;100940.41;5079951;28;45243;-52
2022/08/11 16:19:24;;;;;;;;;9.25;9.25;;;;;32.79;18.22;100948.53;5078651;27;71948;-47
2022/08/11 16:21:50;;;;;;;;;9.25;7.75;;;;;32.82;18.41;100940.06;5078466;28;45247;-51
2022/08/11 16:24:18;;;;;;;;;7.00;7.00;;;;;32.81;18.77;100943.78;5096102;27;59647;-51
2022/08/11 16:26:44;;;;;;;;;8.00;7.75;;;;;32.80;18.01;100942.94;5079062;27;46288;-52